Time;durP1;ratioP1;P1;durP2;ratioP2;P2;SDS_P1;SDS_P2;PMS_P1;PMS_P2;Temp;Humidity;BMP_temperature;BMP_pressure;BME280_temperature;BME280_humidity;BME280_pressure;Samples;Min_cycle;Max_cycle;Signal;HPM_P1;HPM_P2
2023/10/10 00:01:00;;;;;;;14.07;9.27;;;12.50;99.90;;;;;;4889691;29;20036;-77
2023/10/10 00:03:28;;;;;;;14.80;8.65;;;12.50;99.90;;;;;;4889931;29;20057;-76
2023/10/10 00:05:55;;;;;;;14.18;9.63;;;12.50;99.90;;;;;;4889521;29;20055;-76
2023/10/10 00:08:27;;;;;;;15.85;9.68;;;12.50;99.90;;;;;;4879005;29;20119;-76
2023/10/10 00:10:55;;;;;;;13.63;8.65;;;12.50;99.90;;;;;;4890886;29;20557;-76
2023/10/10 00:13:23;;;;;;;13.48;8.85;;;12.50;99.90;;;;;;4890074;29;20071;-76
2023/10/10 00:16:05;;;;;;;14.18;7.88;;;12.50;99.90;;;;;;4885703;29;20033;-76
2023/10/10 00:18:32;;;;;;;12.00;7.93;;;12.60;99.90;;;;;;4889008;29;20554;-77
2023/10/10 00:21:06;;;;;;;10.70;7.72;;;12.60;99.90;;;;;;4888798;29;20609;-76
2023/10/10 00:23:47;;;;;;;13.68;9.05;;;12.50;99.90;;;;;;4887659;29;20029;-77
2023/10/10 00:26:14;;;;;;;18.48;9.63;;;12.50;99.90;;;;;;4888657;29;20043;-76
2023/10/10 00:28:41;;;;;;;16.80;9.77;;;12.50;99.90;;;;;;4888766;29;20028;-76
2023/10/10 00:31:15;;;;;;;14.88;9.15;;;12.50;99.90;;;;;;4889381;29;20212;-77
2023/10/10 00:33:41;;;;;;;17.90;10.30;;;12.50;99.90;;;;;;4886304;29;20112;-76
2023/10/10 00:36:14;;;;;;;20.50;11.02;;;12.50;99.90;;;;;;4870860;29;20868;-76
2023/10/10 00:38:41;;;;;;;23.45;12.10;;;12.40;99.90;;;;;;4870647;29;20037;-77
2023/10/10 00:41:10;;;;;;;25.83;12.05;;;12.40;99.90;;;;;;4881962;29;20045;-76
2023/10/10 00:43:36;;;;;;;22.95;11.93;;;12.30;99.90;;;;;;4889673;29;20040;-77
2023/10/10 00:46:04;;;;;;;22.20;11.13;;;12.30;99.90;;;;;;4889515;29;20040;-76
2023/10/10 00:48:32;;;;;;;16.52;9.15;;;12.20;99.90;;;;;;4889106;29;20414;-76
2023/10/10 00:51:09;;;;;;;16.92;9.52;;;12.20;99.90;;;;;;4890426;29;20118;-76
2023/10/10 00:53:36;;;;;;;19.90;10.93;;;12.20;99.90;;;;;;4887651;29;20045;-76
2023/10/10 00:56:06;;;;;;;21.38;10.20;;;12.10;99.90;;;;;;4890086;29;20040;-76
2023/10/10 00:58:36;;;;;;;16.88;8.73;;;12.00;99.90;;;;;;4889266;29;20096;-76
2023/10/10 01:01:10;;;;;;;17.52;9.60;;;12.10;99.90;;;;;;4879742;29;20037;-76
2023/10/10 01:03:40;;;;;;;14.43;9.90;;;12.00;99.90;;;;;;4887734;29;20566;-77
2023/10/10 01:06:20;;;;;;;18.80;11.02;;;12.10;99.90;;;;;;4872184;29;20075;-76
2023/10/10 01:08:57;;;;;;;16.67;9.80;;;12.10;99.90;;;;;;4870973;29;20077;-76
2023/10/10 01:11:23;;;;;;;16.77;9.77;;;12.10;99.90;;;;;;4887049;29;20104;-77
2023/10/10 01:13:52;;;;;;;15.40;9.48;;;12.10;99.90;;;;;;4888431;29;20032;-76
2023/10/10 01:16:25;;;;;;;18.00;9.75;;;12.10;99.90;;;;;;4888213;29;20032;-76
2023/10/10 01:18:54;;;;;;;14.63;8.60;;;12.00;99.90;;;;;;4888607;29;20052;-77
2023/10/10 01:21:29;;;;;;;14.57;8.48;;;12.00;99.90;;;;;;4888640;29;20082;-77
2023/10/10 01:23:58;;;;;;;15.40;8.95;;;12.10;99.90;;;;;;4889506;29;20444;-76
2023/10/10 01:26:28;;;;;;;15.30;8.80;;;12.00;99.90;;;;;;4888524;29;20431;-76
2023/10/10 01:28:54;;;;;;;16.08;8.38;;;11.90;99.90;;;;;;4888364;29;20036;-76
2023/10/10 01:31:19;;;;;;;14.35;8.25;;;12.10;99.90;;;;;;4887893;29;20128;-76
2023/10/10 01:33:47;;;;;;;13.95;8.77;;;12.00;99.90;;;;;;4878557;29;20505;-76
2023/10/10 01:36:19;;;;;;;13.50;8.13;;;12.00;99.90;;;;;;4866791;29;20084;-76
2023/10/10 01:38:59;;;;;;;;;;;11.90;99.90;;;;;;4869731;29;20069;-76
2023/10/10 01:41:31;;;;;;;14.48;7.68;;;12.00;99.90;;;;;;4879159;29;20003;-76
2023/10/10 01:44:08;;;;;;;13.15;8.07;;;12.00;99.90;;;;;;4886909;29;20570;-76
2023/10/10 01:46:35;;;;;;;19.55;9.63;;;12.00;99.90;;;;;;4878545;29;20047;-77
2023/10/10 01:49:06;;;;;;;18.05;8.40;;;12.10;99.90;;;;;;4884181;29;20046;-76
2023/10/10 01:51:35;;;;;;;18.02;9.77;;;12.20;99.90;;;;;;4877569;29;20059;-77
2023/10/10 01:54:14;;;;;;;15.05;8.77;;;12.20;99.90;;;;;;5053236;28;20946;-72
2023/10/10 01:56:40;;;;;;;13.50;8.52;;;12.20;99.90;;;;;;5053603;28;20040;-72
2023/10/10 01:59:09;;;;;;;13.30;7.82;;;12.20;99.90;;;;;;5051889;28;20032;-73
2023/10/10 02:01:35;;;;;;;12.27;7.50;;;12.20;99.90;;;;;;5040780;28;20026;-73
2023/10/10 02:04:06;;;;;;;14.23;7.88;;;12.20;99.90;;;;;;5047711;28;20568;-73
2023/10/10 02:06:34;;;;;;;13.40;7.60;;;12.20;99.90;;;;;;5069591;28;20484;-73
2023/10/10 02:09:11;;;;;;;13.82;8.00;;;12.10;99.90;;;;;;5072637;28;20387;-73
2023/10/10 02:11:50;;;;;;;13.82;8.38;;;12.00;99.90;;;;;;5072728;28;20616;-72
2023/10/10 02:14:19;;;;;;;15.57;7.97;;;12.00;99.90;;;;;;5073692;28;20059;-72
2023/10/10 02:16:53;;;;;;;16.25;8.57;;;11.90;99.90;;;;;;5074769;28;20492;-73
2023/10/10 02:19:27;;;;;;;19.40;10.45;;;11.80;99.90;;;;;;5074736;28;20043;-73
2023/10/10 02:22:03;;;;;;;20.55;11.32;;;11.70;99.90;;;;;;5056291;28;20024;-73
2023/10/10 02:26:55;;;;;;;16.13;10.48;;;11.80;99.90;;;;;;5054177;28;20346;-73
2023/10/10 02:32:08;;;;;;;17.67;10.52;;;11.70;99.90;;;;;;5060006;28;20029;-73
2023/10/10 02:34:35;;;;;;;16.52;10.13;;;11.70;99.90;;;;;;5053421;28;20040;-73
2023/10/10 02:37:41;;;;;;;17.80;10.13;;;11.70;99.90;;;;;;5036175;28;20394;-72
2023/10/10 02:40:15;;;;;;;18.33;10.77;;;11.60;99.90;;;;;;5067228;28;20044;-73
2023/10/10 02:43:09;;;;;;;20.17;10.20;;;11.60;99.90;;;;;;5059354;28;20119;-73
2023/10/10 02:45:35;;;;;;;16.27;10.23;;;11.60;99.90;;;;;;5052146;28;20406;-73
2023/10/10 02:48:07;;;;;;;16.58;10.35;;;11.50;99.90;;;;;;5051445;28;20025;-73
2023/10/10 02:50:40;;;;;;;19.38;10.77;;;11.50;99.90;;;;;;5054691;28;20067;-73
2023/10/10 02:53:09;;;;;;;16.92;10.70;;;11.40;99.90;;;;;;5052705;28;20052;-73
2023/10/10 02:55:40;;;;;;;15.77;10.75;;;11.40;99.90;;;;;;5056681;28;20029;-73
2023/10/10 02:58:20;;;;;;;15.45;9.77;;;11.40;99.90;;;;;;5068541;28;20032;-73
2023/10/10 03:00:47;;;;;;;17.95;9.75;;;11.30;99.90;;;;;;5058707;28;20028;-73
2023/10/10 03:03:18;;;;;;;15.38;10.00;;;11.30;99.90;;;;;;5063647;28;20035;-73
2023/10/10 03:05:50;;;;;;;17.00;10.37;;;11.30;99.90;;;;;;5058563;28;20039;-73
2023/10/10 03:11:00;;;;;;;20.13;11.23;;;11.20;99.90;;;;;;5042984;28;20025;-73
2023/10/10 03:34:55;;;;;;;14.68;9.55;;;11.00;99.90;;;;;;5060749;28;20043;-73
2023/10/10 03:37:30;;;;;;;14.88;9.55;;;11.00;99.90;;;;;;5059731;28;20074;-73
2023/10/10 03:40:20;;;;;;;17.20;10.18;;;11.00;99.90;;;;;;5057407;28;20413;-73
2023/10/10 05:24:16;;;;;;;9.25;6.85;;;11.00;99.90;;;;;;5059188;28;20449;-73
2023/10/10 05:26:48;;;;;;;9.85;6.90;;;11.00;99.90;;;;;;5055120;28;20094;-73
2023/10/10 05:29:14;;;;;;;;;;;11.00;99.90;;;;;;5048183;28;20033;-73
2023/10/10 05:31:39;;;;;;;10.32;7.55;;;10.90;99.90;;;;;;5056839;28;19943;-73
2023/10/10 05:34:07;;;;;;;9.95;7.50;;;10.90;99.90;;;;;;5058427;28;20119;-73
2023/10/10 05:36:34;;;;;;;10.27;7.90;;;10.90;99.90;;;;;;5058535;28;20032;-73
2023/10/10 05:39:00;;;;;;;13.07;9.13;;;10.80;99.90;;;;;;5050432;28;20540;-74
2023/10/10 05:41:27;;;;;;;14.50;8.30;;;10.80;99.90;;;;;;5048014;28;20470;-73
2023/10/10 05:43:56;;;;;;;11.70;7.72;;;10.80;99.90;;;;;;5062222;28;20100;-73
2023/10/10 05:46:21;;;;;;;11.13;7.95;;;10.80;99.90;;;;;;5056215;28;20512;-73
2023/10/10 05:48:47;;;;;;;12.77;8.02;;;10.70;99.90;;;;;;5056539;28;20059;-73
2023/10/10 05:51:13;;;;;;;10.65;7.60;;;10.70;99.90;;;;;;5054596;28;20474;-73
2023/10/10 05:53:39;;;;;;;14.40;8.10;;;10.70;99.90;;;;;;5050518;28;20052;-73
2023/10/10 05:56:15;;;;;;;12.13;8.30;;;10.70;99.90;;;;;;5058586;28;20129;-73
2023/10/10 05:58:45;;;;;;;11.45;7.93;;;10.70;99.90;;;;;;5056952;28;20119;-73
2023/10/10 06:01:14;;;;;;;10.52;7.53;;;10.70;99.90;;;;;;5057182;28;20056;-74
2023/10/10 06:03:46;;;;;;;12.65;8.60;;;10.60;99.90;;;;;;5047524;28;20478;-73
2023/10/10 06:06:13;;;;;;;13.50;9.57;;;10.60;99.90;;;;;;5047295;28;20044;-73
2023/10/10 06:08:42;;;;;;;14.55;8.43;;;10.60;99.90;;;;;;5058272;28;20216;-73
2023/10/10 06:11:08;;;;;;;13.98;8.90;;;10.60;99.90;;;;;;5058396;28;20195;-72
2023/10/10 06:13:39;;;;;;;12.52;8.43;;;10.60;99.90;;;;;;5056640;28;20125;-73
2023/10/10 06:16:14;;;;;;;10.80;7.77;;;10.60;99.90;;;;;;5048380;28;20029;-73
2023/10/10 06:18:50;;;;;;;12.05;7.75;;;10.60;99.90;;;;;;5037780;28;20028;-72
2023/10/10 06:21:15;;;;;;;13.52;8.20;;;10.60;99.90;;;;;;5055129;28;20029;-73
2023/10/10 06:23:42;;;;;;;12.38;8.25;;;10.60;99.90;;;;;;5055460;28;20031;-73
2023/10/10 06:26:08;;;;;;;11.60;8.68;;;10.70;99.90;;;;;;5053348;28;20088;-73
2023/10/10 06:28:45;;;;;;;13.88;7.75;;;10.70;99.90;;;;;;5048817;28;20035;-73
2023/10/10 06:31:17;;;;;;;12.60;6.93;;;10.70;99.90;;;;;;5056320;28;20446;-72
2023/10/10 06:33:43;;;;;;;10.82;7.30;;;10.70;99.90;;;;;;5046062;28;20094;-73
2023/10/10 06:41:47;;;;;;;10.57;7.40;;;10.80;99.90;;;;;;5054096;28;20028;-73
2023/10/10 06:44:13;;;;;;;9.70;7.18;;;10.80;99.90;;;;;;5056877;28;20622;-73
2023/10/10 06:46:40;;;;;;;9.50;7.05;;;10.80;99.90;;;;;;5061491;28;20091;-73
2023/10/10 06:49:06;;;;;;;10.90;7.25;;;10.90;99.90;;;;;;5031666;22;20060;-76
2023/10/10 06:51:41;;;;;;;11.52;7.90;;;10.90;99.90;;;;;;4998888;28;20048;-76
2023/10/10 06:54:08;;;;;;;13.35;8.38;;;10.90;99.90;;;;;;4993928;28;20030;-76
2023/10/10 06:56:45;;;;;;;10.90;7.72;;;11.00;99.90;;;;;;5001359;28;20026;-76
2023/10/10 06:59:16;;;;;;;10.38;7.18;;;11.00;99.90;;;;;;5001305;28;20113;-76
2023/10/10 07:01:45;;;;;;;13.18;7.60;;;11.00;99.90;;;;;;4996903;28;20471;-76
2023/10/10 07:04:12;;;;;;;11.25;7.38;;;11.10;99.90;;;;;;4996589;28;20513;-77
2023/10/10 07:06:38;;;;;;;12.38;7.55;;;11.20;99.90;;;;;;4998698;28;20116;-77
2023/10/10 07:09:27;;;;;;;9.82;7.22;;;11.30;99.90;;;;;;4997579;28;20204;-76
2023/10/10 07:11:53;;;;;;;10.50;6.78;;;11.40;99.90;;;;;;5000475;28;20041;-76
2023/10/10 07:14:19;;;;;;;12.40;8.18;;;11.60;99.90;;;;;;5001333;28;20624;-77
2023/10/10 07:16:44;;;;;;;12.95;8.45;;;11.80;99.90;;;;;;5000235;28;20032;-77
2023/10/10 07:19:21;;;;;;;8.82;6.65;;;12.00;99.90;;;;;;5000991;28;20025;-77
2023/10/10 07:21:47;;;;;;;8.95;6.43;;;12.20;99.90;;;;;;5001000;28;20160;-76
2023/10/10 07:24:14;;;;;;;9.13;6.68;;;12.40;99.90;;;;;;4996563;28;20068;-76
2023/10/10 07:26:44;;;;;;;9.27;6.68;;;12.50;99.90;;;;;;4998708;28;20083;-77
2023/10/10 07:29:26;;;;;;;11.93;8.15;;;12.70;99.90;;;;;;5010962;28;20454;-76
2023/10/10 07:31:53;;;;;;;11.73;7.57;;;13.00;99.90;;;;;;5002877;28;20033;-77
2023/10/10 07:34:34;;;;;;;9.80;7.07;;;13.40;99.90;;;;;;5002552;28;20145;-76
2023/10/10 07:37:08;;;;;;;;;;;13.70;99.90;;;;;;5003203;28;20085;-77
2023/10/10 07:39:36;;;;;;;7.97;6.50;;;14.00;99.90;;;;;;5001550;28;20727;-77
2023/10/10 07:42:03;;;;;;;10.05;6.75;;;14.40;99.90;;;;;;5000204;28;20141;-76
2023/10/10 07:44:30;;;;;;;9.05;6.30;;;15.40;99.90;;;;;;5002859;28;20460;-77
2023/10/10 07:49:40;;;;;;;9.65;6.45;;;17.10;99.90;;;;;;4992902;28;20133;-76
2023/10/10 07:52:05;;;;;;;8.95;6.93;;;18.80;99.90;;;;;;4998151;28;20120;-77
2023/10/10 07:54:41;;;;;;;9.13;6.53;;;20.40;99.90;;;;;;5000308;28;20482;-77
2023/10/10 07:57:22;;;;;;;9.60;6.40;;;21.80;99.90;;;;;;4995465;28;20159;-77
2023/10/10 07:59:49;;;;;;;8.10;6.13;;;23.30;99.90;;;;;;4995354;28;20569;-77
2023/10/10 08:02:34;;;;;;;6.95;5.80;;;24.40;97.60;;;;;;4980128;28;20034;-77
2023/10/10 08:05:01;;;;;;;8.40;6.00;;;25.30;93.50;;;;;;4994167;28;20090;-77
2023/10/10 08:07:28;;;;;;;6.55;5.40;;;26.10;90.00;;;;;;4995666;28;20396;-77
2023/10/10 08:13:02;;;;;;;6.22;5.63;;;26.90;82.90;;;;;;4941863;28;20047;-79
2023/10/10 08:15:28;;;;;;;6.28;5.20;;;27.30;80.90;;;;;;4988824;28;20045;-78
2023/10/10 08:17:55;;;;;;;6.05;5.43;;;27.80;77.20;;;;;;5003923;28;20076;-76
2023/10/10 08:23:17;;;;;;;7.60;5.85;;;28.60;74.70;;;;;;5000322;28;20041;-77
2023/10/10 08:25:42;;;;;;;7.18;6.10;;;29.20;70.80;;;;;;5003279;28;20029;-77
2023/10/10 08:28:08;;;;;;;7.78;5.93;;;29.40;70.50;;;;;;5005515;28;20072;-78
2023/10/10 08:30:33;;;;;;;7.47;6.30;;;29.80;69.30;;;;;;4982522;28;20034;-81
2023/10/10 08:32:59;;;;;;;7.75;5.97;;;30.30;68.00;;;;;;4999739;28;20036;-78
2023/10/10 08:35:29;;;;;;;8.18;6.03;;;31.00;65.60;;;;;;4999349;28;20404;-78
2023/10/10 08:37:56;;;;;;;8.15;6.22;;;31.50;65.40;;;;;;4999648;28;20021;-79
2023/10/10 08:40:22;;;;;;;6.38;5.30;;;31.10;62.20;;;;;;5000258;28;20036;-80
2023/10/10 08:42:51;;;;;;;7.05;5.40;;;29.70;63.80;;;;;;5000427;28;20413;-78
2023/10/10 08:45:24;;;;;;;6.68;5.53;;;28.20;70.00;;;;;;5002826;28;20184;-79
2023/10/10 08:47:50;;;;;;;6.15;4.57;;;27.00;78.90;;;;;;5001580;28;20048;-78
2023/10/10 08:50:17;;;;;;;7.53;4.30;;;26.70;90.10;;;;;;5002360;28;20119;-78
2023/10/10 08:52:43;;;;;;;7.05;3.72;;;28.00;89.90;;;;;;5002204;28;20050;-79
2023/10/10 08:55:13;;;;;;;9.75;4.32;;;30.30;81.80;;;;;;4997487;28;20121;-79
2023/10/10 08:57:38;;;;;;;10.40;3.60;;;32.10;75.90;;;;;;4983648;28;20041;-83
2023/10/10 09:00:15;;;;;;;8.38;4.05;;;33.50;68.30;;;;;;4992809;28;20432;-85
2023/10/10 09:02:44;;;;;;;7.22;3.33;;;34.30;61.70;;;;;;5006281;28;20025;-84
2023/10/10 09:05:14;;;;;;;8.63;3.75;;;35.50;61.40;;;;;;5010590;28;20044;-82
2023/10/10 09:07:43;;;;;;;7.00;3.50;;;36.80;55.40;;;;;;5009834;28;20172;-80
2023/10/10 09:10:14;;;;;;;7.75;3.53;;;37.50;52.90;;;;;;4986850;28;20044;-87
2023/10/10 09:13:19;;;;;;;6.93;3.55;;;38.60;51.00;;;;;;5004552;28;20049;-83
2023/10/10 09:15:50;;;;;;;9.30;3.70;;;39.50;49.50;;;;;;4983025;28;20038;-84
2023/10/10 09:18:23;;;;;;;7.82;3.85;;;39.30;45.90;;;;;;5003562;28;20459;-83
2023/10/10 09:20:50;;;;;;;9.52;3.38;;;38.50;45.40;;;;;;5002112;28;20506;-81
2023/10/10 09:23:21;;;;;;;6.75;3.25;;;37.30;46.60;;;;;;5000708;28;20120;-81
2023/10/10 09:25:49;;;;;;;7.55;3.28;;;36.10;49.00;;;;;;5000624;28;20026;-81
2023/10/10 09:28:16;;;;;;;7.15;3.00;;;35.30;50.80;;;;;;4998185;28;20041;-80
2023/10/10 09:31:00;;;;;;;7.13;3.10;;;35.10;53.90;;;;;;5003681;28;20032;-80
2023/10/10 09:35:59;;;;;;;6.93;3.05;;;35.70;52.00;;;;;;5004757;28;20052;-80
2023/10/10 09:38:34;;;;;;;5.90;3.35;;;35.20;51.50;;;;;;5001728;28;20365;-79
2023/10/10 09:41:14;;;;;;;8.98;3.22;;;34.10;51.80;;;;;;4980869;28;20389;-80
2023/10/10 09:43:49;;;;;;;7.25;4.30;;;32.80;53.80;;;;;;4995458;28;20017;-80
2023/10/10 09:46:35;;;;;;;11.63;4.65;;;31.30;58.40;;;;;;5009379;28;20479;-79
2023/10/10 09:54:25;;;;;;;7.97;3.43;;;28.10;69.00;;;;;;4971156;28;20434;-79
2023/10/10 09:56:53;;;;;;;7.97;3.35;;;26.90;80.40;;;;;;4991562;28;20365;-79
2023/10/10 09:59:20;;;;;;;11.00;3.72;;;26.10;86.60;;;;;;4990382;28;20041;-79
2023/10/10 10:01:47;;;;;;;5.88;3.00;;;25.40;93.30;;;;;;4991517;28;20328;-78
2023/10/10 10:04:19;;;;;;;6.60;3.40;;;25.00;98.20;;;;;;4983820;28;20090;-80
2023/10/10 10:07:12;;;;;;;10.50;3.47;;;24.70;99.30;;;;;;4992529;28;20026;-78
2023/10/10 10:10:09;;;;;;;8.82;3.55;;;24.40;99.90;;;;;;4992647;28;20391;-79
2023/10/10 10:12:59;;;;;;;5.95;3.60;;;24.30;99.90;;;;;;4991516;28;20098;-79
2023/10/10 10:15:48;;;;;;;8.17;3.60;;;25.00;99.90;;;;;;4991863;28;20054;-80
2023/10/10 10:18:44;;;;;;;9.27;3.30;;;27.80;99.70;;;;;;4308062;28;10000339;-79
2023/10/10 10:21:18;;;;;;;5.80;3.33;;;31.30;91.00;;;;;;4985171;28;20405;-80
2023/10/10 10:23:46;;;;;;;10.88;3.83;;;34.60;73.90;;;;;;5002467;28;20037;-80
2023/10/10 10:26:31;;;;;;;8.23;3.20;;;34.90;66.40;;;;;;5001000;28;20062;-80
2023/10/10 10:29:15;;;;;;;8.20;3.25;;;36.00;62.80;;;;;;5001096;28;20041;-80
2023/10/10 10:31:49;;;;;;;8.48;3.03;;;37.00;57.10;;;;;;4984046;28;20034;-80
2023/10/10 10:34:31;;;;;;;7.65;3.10;;;37.80;54.70;;;;;;4996934;28;20089;-81
2023/10/10 10:37:07;;;;;;;8.18;3.17;;;38.50;52.40;;;;;;5004801;28;20058;-80
2023/10/10 10:39:37;;;;;;;6.45;3.50;;;38.60;50.10;;;;;;4996070;28;20090;-80
2023/10/10 10:42:15;;;;;;;6.38;3.40;;;38.10;50.30;;;;;;4986093;28;20037;-80
2023/10/10 10:44:47;;;;;;;5.90;3.50;;;37.40;50.70;;;;;;5004828;28;20490;-80
2023/10/10 10:47:34;;;;;;;8.98;2.85;;;37.00;51.20;;;;;;5021868;28;20031;-79
2023/10/10 10:50:16;;;;;;;6.25;3.00;;;36.80;52.50;;;;;;5005749;28;20049;-79
2023/10/10 10:52:58;;;;;;;8.50;3.17;;;36.80;52.60;;;;;;5002545;28;20484;-80
2023/10/10 10:55:29;;;;;;;11.70;4.22;;;36.90;53.20;;;;;;4997981;28;20357;-79
2023/10/10 10:58:07;;;;;;;8.77;4.63;;;36.60;52.50;;;;;;5002818;28;20027;-78
2023/10/10 11:01:07;;;;;;;10.43;4.57;;;35.10;51.90;;;;;;5002634;28;20044;-79
2023/10/10 11:03:35;;;;;;;9.25;4.88;;;33.70;56.10;;;;;;5001393;28;20475;-80
2023/10/10 11:06:09;;;;;;;12.52;5.57;;;32.20;59.60;;;;;;4981055;28;20026;-79
2023/10/10 11:11:24;;;;;;;9.82;4.75;;;30.30;64.20;;;;;;4993210;28;20022;-79
2023/10/10 11:14:18;;;;;;;10.20;5.13;;;29.60;67.30;;;;;;5004079;28;20527;-78
2023/10/10 11:16:56;;;;;;;9.73;5.18;;;29.10;72.70;;;;;;5004543;28;20094;-78
2023/10/10 11:21:55;;;;;;;12.13;5.40;;;28.30;72.60;;;;;;5001807;28;20029;-80
2023/10/10 11:24:26;;;;;;;9.00;4.75;;;28.10;75.00;;;;;;5002373;28;20159;-79
2023/10/10 11:29:48;;;;;;;7.72;4.30;;;27.70;84.30;;;;;;4995766;28;20038;-79
2023/10/10 11:32:24;;;;;;;7.38;3.42;;;27.50;83.50;;;;;;4991855;28;20038;-80
2023/10/10 11:35:17;;;;;;;9.20;4.00;;;27.40;84.60;;;;;;4998515;28;20125;-80
2023/10/10 11:37:47;;;;;;;10.43;3.95;;;27.40;88.80;;;;;;5002889;28;20122;-79
2023/10/10 11:42:59;;;;;;;7.88;3.45;;;27.60;83.40;;;;;;5003851;28;20798;-80
2023/10/10 11:45:28;;;;;;;8.70;3.17;;;27.30;86.60;;;;;;5002062;28;20029;-79
2023/10/10 11:48:00;;;;;;;7.13;3.10;;;27.10;87.40;;;;;;5002014;28;20029;-79
2023/10/10 11:50:51;;;;;;;8.57;3.08;;;27.20;91.20;;;;;;5003345;28;20116;-80
2023/10/10 11:53:24;;;;;;;7.32;3.35;;;27.20;90.60;;;;;;5002166;28;20069;-78
2023/10/10 11:55:53;;;;;;;9.85;3.00;;;26.90;90.40;;;;;;5002418;28;20044;-79
2023/10/10 11:58:19;;;;;;;10.10;3.42;;;26.80;91.70;;;;;;5007153;28;20026;-85
2023/10/10 12:01:05;;;;;;;7.07;3.25;;;26.90;92.40;;;;;;4989209;28;20649;-87
2023/10/10 12:06:00;;;;;;;7.60;3.60;;;27.00;92.40;;;;;;5004682;28;20034;-84
2023/10/10 12:08:26;;;;;;;8.50;3.22;;;26.90;91.00;;;;;;5005442;28;20387;-87
2023/10/10 12:11:02;;;;;;;6.70;3.40;;;26.70;90.90;;;;;;5006996;28;20065;-92
2023/10/10 12:16:07;;;;;;;8.40;3.75;;;26.30;92.70;;;;;;5006526;28;20456;-87
2023/10/10 12:18:34;;;;;;;7.97;4.09;;;26.40;93.30;;;;;;4654970;28;10000917;-87
2023/10/10 12:21:01;;;;;;;9.20;3.72;;;26.20;91.50;;;;;;4656396;28;10000407;-87
2023/10/10 12:23:28;;;;;;;7.63;3.67;;;26.10;92.10;;;;;;5003595;28;20440;-80
2023/10/10 12:25:54;;;;;;;14.55;3.95;;;25.70;92.30;;;;;;5002940;28;20025;-85
2023/10/10 12:28:20;;;;;;;6.80;3.72;;;25.30;94.60;;;;;;5004323;28;20033;-86
2023/10/10 12:30:46;;;;;;;7.22;3.50;;;25.20;95.80;;;;;;4986348;28;20030;-88
2023/10/10 12:33:16;;;;;;;10.48;4.22;;;25.10;97.00;;;;;;5005814;28;20125;-87
2023/10/10 12:35:48;;;;;;;8.73;4.13;;;25.10;96.30;;;;;;5007840;28;20030;-89
2023/10/10 12:38:20;;;;;;;11.50;4.25;;;25.20;97.80;;;;;;5005328;28;20490;-87
2023/10/10 12:40:56;;;;;;;6.72;3.95;;;25.40;97.90;;;;;;5008210;28;20021;-87
2023/10/10 12:43:25;;;;;;;8.80;4.60;;;25.60;97.70;;;;;;5007002;28;20036;-87
2023/10/10 12:45:51;;;;;;;13.00;5.03;;;25.60;95.60;;;;;;5010474;28;20029;-86
2023/10/10 12:48:20;;;;;;;10.60;4.43;;;25.30;94.40;;;;;;5011511;28;20033;-91
2023/10/10 12:50:48;;;;;;;10.07;4.40;;;25.00;96.60;;;;;;5003855;28;20037;-91
2023/10/10 12:53:15;;;;;;;10.57;4.47;;;24.80;96.80;;;;;;5006848;28;20026;-89
2023/10/10 12:55:48;;;;;;;10.95;5.30;;;24.50;96.80;;;;;;4995800;28;20034;-86
2023/10/10 12:58:16;;;;;;;9.63;4.63;;;23.90;99.90;;;;;;5003389;28;20145;-85
2023/10/10 13:00:50;;;;;;;9.07;5.00;;;22.90;99.90;;;;;;5004097;28;20181;-86
2023/10/10 13:03:28;;;;;;;10.80;5.28;;;22.20;99.90;;;;;;5006303;28;20033;-87
2023/10/10 13:06:04;;;;;;;11.32;5.25;;;21.70;99.90;;;;;;5018188;28;20049;-86
2023/10/10 13:11:20;;;;;;;11.07;5.30;;;21.10;99.90;;;;;;5003777;28;20095;-86
2023/10/10 13:13:53;;;;;;;10.15;5.85;;;21.70;99.90;;;;;;5004162;28;20045;-80
2023/10/10 13:16:22;;;;;;;11.25;4.82;;;22.20;99.90;;;;;;5013541;28;20030;-84
2023/10/10 13:18:57;;;;;;;13.05;5.07;;;22.30;99.90;;;;;;5024892;28;20435;-86
2023/10/10 13:21:23;;;;;;;12.20;5.22;;;22.50;99.90;;;;;;4998834;28;20710;-86
2023/10/10 13:23:50;;;;;;;8.32;4.60;;;22.90;99.90;;;;;;5004546;28;20041;-86
2023/10/10 13:26:16;;;;;;;10.85;4.30;;;23.00;99.90;;;;;;5001179;28;20038;-87
2023/10/10 13:28:46;;;;;;;9.20;4.55;;;23.30;99.90;;;;;;5001069;28;20709;-87
2023/10/10 13:31:16;;;;;;;7.78;4.45;;;23.60;99.90;;;;;;5005379;28;20022;-84
2023/10/10 13:33:43;;;;;;;9.85;4.53;;;23.60;99.90;;;;;;5005625;28;20034;-86
2023/10/10 13:36:14;;;;;;;8.82;4.30;;;23.60;99.90;;;;;;5004059;28;20044;-86
2023/10/10 13:38:49;;;;;;;13.65;4.78;;;23.30;99.90;;;;;;4994794;28;20053;-85
2023/10/10 13:41:18;;;;;;;7.85;4.40;;;23.30;99.90;;;;;;4991889;28;20133;-88
2023/10/10 13:43:46;;;;;;;10.05;4.63;;;23.50;99.90;;;;;;4994986;28;20033;-88
2023/10/10 13:46:16;;;;;;;13.73;4.55;;;23.40;99.90;;;;;;4991027;28;20065;-87
2023/10/10 13:48:42;;;;;;;7.32;4.00;;;23.00;99.90;;;;;;4994346;28;20068;-87
2023/10/10 13:51:08;;;;;;;9.43;4.78;;;22.40;99.90;;;;;;4995975;28;20042;-86
2023/10/10 13:53:35;;;;;;;7.95;4.13;;;21.80;99.90;;;;;;4981467;28;20037;-87
2023/10/10 13:56:04;;;;;;;9.68;3.90;;;21.30;99.90;;;;;;4997400;28;20487;-88
2023/10/10 13:58:30;;;;;;;9.85;4.00;;;20.90;99.90;;;;;;4997130;28;20074;-87
2023/10/10 14:01:13;;;;;;;8.20;4.15;;;20.70;99.90;;;;;;4999079;28;20058;-82
2023/10/10 14:03:47;;;;;;;9.77;3.90;;;20.70;99.90;;;;;;4995089;28;20547;-85
2023/10/10 14:06:16;;;;;;;8.77;3.72;;;20.70;99.90;;;;;;4996107;28;20033;-87
2023/10/10 14:08:47;;;;;;;7.90;3.70;;;20.60;99.90;;;;;;4994519;28;20034;-83
2023/10/10 14:11:20;;;;;;;;;;;20.30;99.90;;;;;;5001240;28;20034;-86
2023/10/10 14:13:47;;;;;;;10.02;3.90;;;20.40;99.90;;;;;;4999098;28;20020;-87
2023/10/10 14:16:13;;;;;;;8.32;3.42;;;20.50;99.90;;;;;;4999627;28;20073;-85
2023/10/10 14:18:49;;;;;;;12.07;3.58;;;20.70;99.90;;;;;;4995709;28;20038;-87
2023/10/10 14:21:17;;;;;;;9.63;3.50;;;20.70;99.90;;;;;;4994824;28;20499;-82
2023/10/10 14:23:46;;;;;;;12.93;3.95;;;20.50;99.90;;;;;;4995110;28;20053;-85
2023/10/10 14:26:12;;;;;;;7.65;3.10;;;20.40;99.90;;;;;;5002934;28;20026;-85
2023/10/10 14:28:41;;;;;;;9.25;3.40;;;20.40;99.90;;;;;;4996639;28;20027;-87
2023/10/10 14:31:13;;;;;;;7.55;3.58;;;20.40;99.90;;;;;;4992048;28;20116;-87
2023/10/10 14:33:40;;;;;;;5.40;2.95;;;20.40;99.90;;;;;;5000548;28;20469;-84
2023/10/10 14:36:11;;;;;;;11.07;3.40;;;20.20;99.90;;;;;;5002220;28;20026;-84
2023/10/10 14:38:44;;;;;;;6.10;2.97;;;20.30;99.90;;;;;;5002934;28;20082;-82
2023/10/10 14:41:17;;;;;;;9.52;3.15;;;20.50;99.90;;;;;;5002099;28;20086;-84
2023/10/10 14:43:50;;;;;;;10.93;3.65;;;20.60;99.90;;;;;;5003452;28;20039;-82
2023/10/10 14:46:21;;;;;;;6.65;3.03;;;20.60;99.90;;;;;;5003876;28;20054;-84
2023/10/10 14:49:00;;;;;;;11.55;3.65;;;20.80;99.90;;;;;;5007755;28;20056;-83
2023/10/10 14:51:33;;;;;;;6.95;3.17;;;21.00;99.90;;;;;;5003520;28;20033;-84
2023/10/10 14:54:06;;;;;;;7.85;3.15;;;21.10;99.90;;;;;;5004213;28;20650;-79
2023/10/10 14:56:35;;;;;;;9.77;3.38;;;21.40;99.90;;;;;;4996834;28;20105;-83
2023/10/10 14:59:04;;;;;;;10.60;3.08;;;21.50;99.90;;;;;;5003930;28;20074;-82
2023/10/10 15:01:34;;;;;;;9.18;3.03;;;21.70;99.90;;;;;;5006639;28;20091;-82
2023/10/10 15:04:04;;;;;;;10.27;3.35;;;21.70;99.90;;;;;;5003377;28;20116;-83
2023/10/10 15:06:31;;;;;;;10.52;3.08;;;21.70;99.90;;;;;;5003501;28;20038;-83
2023/10/10 15:08:58;;;;;;;9.05;3.38;;;21.90;99.90;;;;;;5007552;28;20094;-84
2023/10/10 15:11:27;;;;;;;16.17;3.20;;;21.80;99.90;;;;;;5006845;28;20121;-84
2023/10/10 15:13:56;;;;;;;8.88;3.42;;;21.60;99.90;;;;;;5005048;28;20048;-83
2023/10/10 15:16:23;;;;;;;8.13;3.33;;;21.10;99.90;;;;;;5004477;28;20022;-86
2023/10/10 15:18:52;;;;;;;10.25;3.25;;;20.60;99.90;;;;;;5003475;28;20042;-82
2023/10/10 15:21:19;;;;;;;13.15;3.63;;;20.40;99.90;;;;;;5001176;28;20064;-80
2023/10/10 15:23:46;;;;;;;10.77;3.53;;;20.20;99.90;;;;;;5000521;28;20058;-80
2023/10/10 15:26:17;;;;;;;8.50;3.53;;;20.10;99.90;;;;;;4984288;28;20061;-80
2023/10/10 15:28:43;;;;;;;;;;;20.00;99.90;;;;;;4970992;28;20034;-82
2023/10/10 15:31:09;;;;;;;9.82;3.08;;;20.00;99.90;;;;;;5001438;28;19981;-83
2023/10/10 15:33:36;;;;;;;10.55;3.67;;;20.00;99.90;;;;;;5001608;28;20062;-82
2023/10/10 15:36:06;;;;;;;8.63;3.67;;;19.90;99.90;;;;;;5005029;28;20109;-84
2023/10/10 15:38:32;;;;;;;7.75;3.08;;;19.80;99.90;;;;;;5002130;28;20034;-83
2023/10/10 15:40:58;;;;;;;8.98;3.28;;;19.70;99.90;;;;;;5001771;28;20034;-80
2023/10/10 15:43:25;;;;;;;7.85;3.65;;;19.80;99.90;;;;;;5005359;28;20392;-83
2023/10/10 15:45:51;;;;;;;7.28;3.47;;;19.80;99.90;;;;;;5005890;28;20109;-83
2023/10/10 15:48:22;;;;;;;8.48;3.17;;;19.80;99.90;;;;;;5005431;28;20133;-83
2023/10/10 15:50:53;;;;;;;7.50;3.28;;;19.90;99.90;;;;;;5006271;28;20044;-84
2023/10/10 15:53:21;;;;;;;7.63;3.20;;;20.00;99.90;;;;;;5005865;28;20045;-83